sensor_id;sensor_type;location;lat;lon;timestamp;temperature;humidity
55173;DHT22;41061;52.822;6.860;2023-04-24T00:00:20;10.70;99.90
55173;DHT22;41061;52.822;6.860;2023-04-24T00:02:46;10.60;99.90
55173;DHT22;41061;52.822;6.860;2023-04-24T00:05:13;10.50;99.90
55173;DHT22;41061;52.822;6.860;2023-04-24T00:07:40;10.50;99.90
55173;DHT22;41061;52.822;6.860;2023-04-24T00:10:07;10.50;99.90
55173;DHT22;41061;52.822;6.860;2023-04-24T00:12:32;10.50;99.90
55173;DHT22;41061;52.822;6.860;2023-04-24T00:14:59;10.50;99.90
55173;DHT22;41061;52.822;6.860;2023-04-24T00:17:26;10.50;99.90
55173;DHT22;41061;52.822;6.860;2023-04-24T00:19:52;10.50;99.90
55173;DHT22;41061;52.822;6.860;2023-04-24T00:22:27;10.40;99.90
55173;DHT22;41061;52.822;6.860;2023-04-24T00:24:54;10.40;99.90
55173;DHT22;41061;52.822;6.860;2023-04-24T00:27:20;10.40;99.90
55173;DHT22;41061;52.822;6.860;2023-04-24T00:29:45;10.40;99.90
55173;DHT22;41061;52.822;6.860;2023-04-24T00:32:11;10.40;99.90
55173;DHT22;41061;52.822;6.860;2023-04-24T00:34:37;10.30;99.90
55173;DHT22;41061;52.822;6.860;2023-04-24T00:37:03;10.40;99.90
55173;DHT22;41061;52.822;6.860;2023-04-24T00:39:29;10.40;99.90
55173;DHT22;41061;52.822;6.860;2023-04-24T00:41:54;10.30;99.90
55173;DHT22;41061;52.822;6.860;2023-04-24T00:44:22;10.40;99.90
55173;DHT22;41061;52.822;6.860;2023-04-24T00:46:48;10.30;99.90
55173;DHT22;41061;52.822;6.860;2023-04-24T00:49:18;10.30;99.90
55173;DHT22;41061;52.822;6.860;2023-04-24T00:51:44;10.30;99.90
55173;DHT22;41061;52.822;6.860;2023-04-24T00:54:12;10.30;99.90
55173;DHT22;41061;52.822;6.860;2023-04-24T00:56:38;10.30;99.90
55173;DHT22;41061;52.822;6.860;2023-04-24T00:59:04;10.30;99.90
55173;DHT22;41061;52.822;6.860;2023-04-24T01:01:30;10.30;99.90
55173;DHT22;41061;52.822;6.860;2023-04-24T01:03:56;10.30;99.90
55173;DHT22;41061;52.822;6.860;2023-04-24T01:06:23;10.30;99.90
55173;DHT22;41061;52.822;6.860;2023-04-24T01:08:52;10.30;99.90
55173;DHT22;41061;52.822;6.860;2023-04-24T01:11:19;10.20;99.90
55173;DHT22;41061;52.822;6.860;2023-04-24T01:13:47;10.20;99.90
55173;DHT22;41061;52.822;6.860;2023-04-24T01:16:16;10.20;99.90
55173;DHT22;41061;52.822;6.860;2023-04-24T01:18:43;10.20;99.90
55173;DHT22;41061;52.822;6.860;2023-04-24T01:21:09;10.20;99.90
55173;DHT22;41061;52.822;6.860;2023-04-24T01:23:37;10.20;99.90
55173;DHT22;41061;52.822;6.860;2023-04-24T01:26:02;10.20;99.90
55173;DHT22;41061;52.822;6.860;2023-04-24T01:28:28;10.20;99.90
55173;DHT22;41061;52.822;6.860;2023-04-24T01:30:54;10.10;99.90
55173;DHT22;41061;52.822;6.860;2023-04-24T01:33:21;10.10;99.90
55173;DHT22;41061;52.822;6.860;2023-04-24T01:35:47;10.10;99.90
55173;DHT22;41061;52.822;6.860;2023-04-24T01:38:13;10.10;99.90
55173;DHT22;41061;52.822;6.860;2023-04-24T01:40:39;10.20;99.90
55173;DHT22;41061;52.822;6.860;2023-04-24T01:43:05;10.10;99.90
55173;DHT22;41061;52.822;6.860;2023-04-24T01:45:31;10.10;99.90
55173;DHT22;41061;52.822;6.860;2023-04-24T01:47:57;10.10;99.90
55173;DHT22;41061;52.822;6.860;2023-04-24T01:50:23;10.10;99.90
55173;DHT22;41061;52.822;6.860;2023-04-24T01:52:48;10.00;99.90
55173;DHT22;41061;52.822;6.860;2023-04-24T01:55:14;10.10;99.90
55173;DHT22;41061;52.822;6.860;2023-04-24T01:57:40;10.00;99.90
55173;DHT22;41061;52.822;6.860;2023-04-24T02:00:06;10.10;99.90
55173;DHT22;41061;52.822;6.860;2023-04-24T02:02:33;10.00;99.90
55173;DHT22;41061;52.822;6.860;2023-04-24T02:04:59;10.00;99.90
55173;DHT22;41061;52.822;6.860;2023-04-24T02:07:24;10.00;99.90
55173;DHT22;41061;52.822;6.860;2023-04-24T02:09:50;10.00;99.90
55173;DHT22;41061;52.822;6.860;2023-04-24T02:12:16;10.00;99.90
55173;DHT22;41061;52.822;6.860;2023-04-24T02:14:43;10.00;99.90
55173;DHT22;41061;52.822;6.860;2023-04-24T02:17:10;10.00;99.90
55173;DHT22;41061;52.822;6.860;2023-04-24T02:19:38;9.90;99.90
55173;DHT22;41061;52.822;6.860;2023-04-24T02:22:04;10.00;99.90
55173;DHT22;41061;52.822;6.860;2023-04-24T02:24:30;10.00;99.90
55173;DHT22;41061;52.822;6.860;2023-04-24T02:26:56;10.00;99.90
55173;DHT22;41061;52.822;6.860;2023-04-24T02:29:21;10.00;99.90
55173;DHT22;41061;52.822;6.860;2023-04-24T02:31:48;9.90;99.90
55173;DHT22;41061;52.822;6.860;2023-04-24T02:34:13;10.00;99.90
55173;DHT22;41061;52.822;6.860;2023-04-24T02:36:39;10.00;99.90
55173;DHT22;41061;52.822;6.860;2023-04-24T02:39:05;9.90;99.90
55173;DHT22;41061;52.822;6.860;2023-04-24T02:41:31;10.00;99.90
55173;DHT22;41061;52.822;6.860;2023-04-24T02:43:58;9.90;99.90
55173;DHT22;41061;52.822;6.860;2023-04-24T02:46:24;9.90;99.90
55173;DHT22;41061;52.822;6.860;2023-04-24T02:48:50;9.90;99.90
55173;DHT22;41061;52.822;6.860;2023-04-24T02:51:16;9.90;99.90
55173;DHT22;41061;52.822;6.860;2023-04-24T02:53:41;9.90;99.90
55173;DHT22;41061;52.822;6.860;2023-04-24T02:56:07;9.90;99.90
55173;DHT22;41061;52.822;6.860;2023-04-24T02:58:33;9.90;99.90
55173;DHT22;41061;52.822;6.860;2023-04-24T03:00:59;9.90;99.90
55173;DHT22;41061;52.822;6.860;2023-04-24T03:03:26;9.90;99.90
55173;DHT22;41061;52.822;6.860;2023-04-24T03:05:51;9.80;99.90
55173;DHT22;41061;52.822;6.860;2023-04-24T03:08:17;9.90;99.90
55173;DHT22;41061;52.822;6.860;2023-04-24T03:10:43;9.80;99.90
55173;DHT22;41061;52.822;6.860;2023-04-24T03:13:10;9.80;99.90
55173;DHT22;41061;52.822;6.860;2023-04-24T03:15:35;9.80;99.90
55173;DHT22;41061;52.822;6.860;2023-04-24T03:18:01;9.80;99.90
55173;DHT22;41061;52.822;6.860;2023-04-24T03:20:28;9.80;99.90
55173;DHT22;41061;52.822;6.860;2023-04-24T03:22:53;9.80;99.90
55173;DHT22;41061;52.822;6.860;2023-04-24T03:25:19;9.70;99.90
55173;DHT22;41061;52.822;6.860;2023-04-24T03:27:45;9.70;99.90
55173;DHT22;41061;52.822;6.860;2023-04-24T03:30:11;9.70;99.90
55173;DHT22;41061;52.822;6.860;2023-04-24T03:32:37;9.70;99.90
55173;DHT22;41061;52.822;6.860;2023-04-24T03:35:08;9.70;99.90
55173;DHT22;41061;52.822;6.860;2023-04-24T03:37:34;9.70;99.90
55173;DHT22;41061;52.822;6.860;2023-04-24T03:40:01;9.70;99.90
55173;DHT22;41061;52.822;6.860;2023-04-24T03:42:26;9.70;99.90
55173;DHT22;41061;52.822;6.860;2023-04-24T03:44:52;9.70;99.90
55173;DHT22;41061;52.822;6.860;2023-04-24T03:47:18;9.70;99.90
55173;DHT22;41061;52.822;6.860;2023-04-24T03:49:44;9.70;99.90
55173;DHT22;41061;52.822;6.860;2023-04-24T03:52:10;9.70;99.90
55173;DHT22;41061;52.822;6.860;2023-04-24T03:54:35;9.70;99.90
55173;DHT22;41061;52.822;6.860;2023-04-24T03:57:01;9.70;99.90
55173;DHT22;41061;52.822;6.860;2023-04-24T03:59:27;9.70;99.90
55173;DHT22;41061;52.822;6.860;2023-04-24T04:01:52;9.70;99.90
55173;DHT22;41061;52.822;6.860;2023-04-24T04:04:18;9.70;99.90
55173;DHT22;41061;52.822;6.860;2023-04-24T04:06:44;9.70;99.90
55173;DHT22;41061;52.822;6.860;2023-04-24T04:09:10;9.70;99.90
55173;DHT22;41061;52.822;6.860;2023-04-24T04:11:36;9.70;99.90
55173;DHT22;41061;52.822;6.860;2023-04-24T04:14:03;9.70;99.90
55173;DHT22;41061;52.822;6.860;2023-04-24T04:16:28;9.70;99.90
55173;DHT22;41061;52.822;6.860;2023-04-24T04:18:54;9.70;99.90
55173;DHT22;41061;52.822;6.860;2023-04-24T04:21:21;9.70;99.90
55173;DHT22;41061;52.822;6.860;2023-04-24T04:23:46;9.70;99.90
55173;DHT22;41061;52.822;6.860;2023-04-24T04:26:13;9.70;99.90
55173;DHT22;41061;52.822;6.860;2023-04-24T04:28:39;9.70;99.90
55173;DHT22;41061;52.822;6.860;2023-04-24T04:31:05;9.70;99.90
55173;DHT22;41061;52.822;6.860;2023-04-24T04:33:33;9.70;99.90
55173;DHT22;41061;52.822;6.860;2023-04-24T04:35:59;9.70;99.90
55173;DHT22;41061;52.822;6.860;2023-04-24T04:38:25;9.70;99.90
55173;DHT22;41061;52.822;6.860;2023-04-24T04:40:55;9.70;99.90
55173;DHT22;41061;52.822;6.860;2023-04-24T04:43:24;9.70;99.90
55173;DHT22;41061;52.822;6.860;2023-04-24T04:45:51;9.70;99.90
55173;DHT22;41061;52.822;6.860;2023-04-24T04:48:17;9.70;99.90
55173;DHT22;41061;52.822;6.860;2023-04-24T04:50:44;9.70;99.90
55173;DHT22;41061;52.822;6.860;2023-04-24T04:53:10;9.60;99.90
55173;DHT22;41061;52.822;6.860;2023-04-24T04:55:36;9.70;99.90
55173;DHT22;41061;52.822;6.860;2023-04-24T04:58:02;9.70;99.90
55173;DHT22;41061;52.822;6.860;2023-04-24T05:00:28;9.70;99.90
55173;DHT22;41061;52.822;6.860;2023-04-24T05:02:59;9.60;99.90
55173;DHT22;41061;52.822;6.860;2023-04-24T05:05:25;9.70;99.90
55173;DHT22;41061;52.822;6.860;2023-04-24T05:07:50;9.70;99.90
55173;DHT22;41061;52.822;6.860;2023-04-24T05:10:16;9.70;99.90
55173;DHT22;41061;52.822;6.860;2023-04-24T05:12:42;9.70;99.90
55173;DHT22;41061;52.822;6.860;2023-04-24T05:15:08;9.70;99.90
55173;DHT22;41061;52.822;6.860;2023-04-24T05:17:34;9.70;99.90
55173;DHT22;41061;52.822;6.860;2023-04-24T05:19:59;9.70;99.90
55173;DHT22;41061;52.822;6.860;2023-04-24T05:22:26;9.70;99.90
55173;DHT22;41061;52.822;6.860;2023-04-24T05:24:51;9.70;99.90
55173;DHT22;41061;52.822;6.860;2023-04-24T05:27:17;9.70;99.90
55173;DHT22;41061;52.822;6.860;2023-04-24T05:29:43;9.70;99.90
55173;DHT22;41061;52.822;6.860;2023-04-24T05:32:12;9.70;99.90
55173;DHT22;41061;52.822;6.860;2023-04-24T05:34:37;9.80;99.90
55173;DHT22;41061;52.822;6.860;2023-04-24T05:37:03;9.80;99.90
55173;DHT22;41061;52.822;6.860;2023-04-24T05:39:33;9.80;99.90
55173;DHT22;41061;52.822;6.860;2023-04-24T05:41:59;9.80;99.90
55173;DHT22;41061;52.822;6.860;2023-04-24T05:44:26;9.80;99.90
55173;DHT22;41061;52.822;6.860;2023-04-24T05:46:52;9.80;99.90
55173;DHT22;41061;52.822;6.860;2023-04-24T05:49:18;9.80;99.90
55173;DHT22;41061;52.822;6.860;2023-04-24T05:51:44;9.80;99.90
55173;DHT22;41061;52.822;6.860;2023-04-24T05:54:10;9.80;99.90
55173;DHT22;41061;52.822;6.860;2023-04-24T05:56:37;9.80;99.90
55173;DHT22;41061;52.822;6.860;2023-04-24T05:59:03;9.80;99.90
55173;DHT22;41061;52.822;6.860;2023-04-24T06:01:29;9.80;99.90
55173;DHT22;41061;52.822;6.860;2023-04-24T06:03:55;9.80;99.90
55173;DHT22;41061;52.822;6.860;2023-04-24T06:06:21;9.80;99.90
55173;DHT22;41061;52.822;6.860;2023-04-24T06:08:46;9.80;99.90
55173;DHT22;41061;52.822;6.860;2023-04-24T06:11:12;9.80;99.90
55173;DHT22;41061;52.822;6.860;2023-04-24T06:13:38;9.80;99.90
55173;DHT22;41061;52.822;6.860;2023-04-24T06:16:05;9.80;99.90
55173;DHT22;41061;52.822;6.860;2023-04-24T06:18:31;9.80;99.90
55173;DHT22;41061;52.822;6.860;2023-04-24T06:20:56;9.80;99.90
55173;DHT22;41061;52.822;6.860;2023-04-24T06:23:22;9.90;99.90
55173;DHT22;41061;52.822;6.860;2023-04-24T06:25:48;9.90;99.90
55173;DHT22;41061;52.822;6.860;2023-04-24T06:28:13;9.90;99.90
55173;DHT22;41061;52.822;6.860;2023-04-24T06:30:39;9.90;99.90
55173;DHT22;41061;52.822;6.860;2023-04-24T06:33:06;9.90;99.90
55173;DHT22;41061;52.822;6.860;2023-04-24T06:35:32;9.90;99.90
55173;DHT22;41061;52.822;6.860;2023-04-24T06:37:58;9.90;99.90
55173;DHT22;41061;52.822;6.860;2023-04-24T06:40:23;9.90;99.90
55173;DHT22;41061;52.822;6.860;2023-04-24T06:42:49;9.80;99.90
55173;DHT22;41061;52.822;6.860;2023-04-24T06:45:15;9.80;99.90
55173;DHT22;41061;52.822;6.860;2023-04-24T06:47:41;9.80;99.90
55173;DHT22;41061;52.822;6.860;2023-04-24T06:50:07;9.80;99.90
55173;DHT22;41061;52.822;6.860;2023-04-24T06:52:33;9.80;99.90
55173;DHT22;41061;52.822;6.860;2023-04-24T06:55:03;9.90;99.90
55173;DHT22;41061;52.822;6.860;2023-04-24T06:57:29;9.90;99.90
55173;DHT22;41061;52.822;6.860;2023-04-24T06:59:55;9.90;99.90
55173;DHT22;41061;52.822;6.860;2023-04-24T07:02:21;9.90;99.90
55173;DHT22;41061;52.822;6.860;2023-04-24T07:04:47;10.00;99.90
55173;DHT22;41061;52.822;6.860;2023-04-24T07:07:15;10.00;99.90
55173;DHT22;41061;52.822;6.860;2023-04-24T07:09:42;10.10;99.90
55173;DHT22;41061;52.822;6.860;2023-04-24T07:12:08;10.10;99.90
55173;DHT22;41061;52.822;6.860;2023-04-24T07:14:36;10.10;99.90
55173;DHT22;41061;52.822;6.860;2023-04-24T07:17:05;10.20;99.90
55173;DHT22;41061;52.822;6.860;2023-04-24T07:19:33;10.20;99.90
55173;DHT22;41061;52.822;6.860;2023-04-24T07:21:59;10.20;99.90
55173;DHT22;41061;52.822;6.860;2023-04-24T07:24:25;10.20;99.90
55173;DHT22;41061;52.822;6.860;2023-04-24T07:26:52;10.20;99.90
55173;DHT22;41061;52.822;6.860;2023-04-24T07:29:18;10.20;99.90
55173;DHT22;41061;52.822;6.860;2023-04-24T07:31:44;10.20;99.90
55173;DHT22;41061;52.822;6.860;2023-04-24T07:34:10;10.20;99.90
55173;DHT22;41061;52.822;6.860;2023-04-24T07:36:36;10.30;99.90
55173;DHT22;41061;52.822;6.860;2023-04-24T07:39:04;10.30;99.90
55173;DHT22;41061;52.822;6.860;2023-04-24T07:41:30;10.30;99.90
55173;DHT22;41061;52.822;6.860;2023-04-24T07:43:56;10.30;99.90
55173;DHT22;41061;52.822;6.860;2023-04-24T07:46:21;10.30;99.90
55173;DHT22;41061;52.822;6.860;2023-04-24T07:48:48;10.30;99.90
55173;DHT22;41061;52.822;6.860;2023-04-24T07:51:15;10.30;99.90
55173;DHT22;41061;52.822;6.860;2023-04-24T07:53:41;10.30;99.90
55173;DHT22;41061;52.822;6.860;2023-04-24T07:56:07;10.40;99.90
55173;DHT22;41061;52.822;6.860;2023-04-24T07:58:33;10.40;99.90
55173;DHT22;41061;52.822;6.860;2023-04-24T08:00:59;10.40;99.90
55173;DHT22;41061;52.822;6.860;2023-04-24T08:03:25;10.40;99.90
55173;DHT22;41061;52.822;6.860;2023-04-24T08:05:51;10.40;99.90
55173;DHT22;41061;52.822;6.860;2023-04-24T08:08:17;10.40;99.90
55173;DHT22;41061;52.822;6.860;2023-04-24T08:10:43;10.50;99.90
55173;DHT22;41061;52.822;6.860;2023-04-24T08:13:09;10.50;99.90
55173;DHT22;41061;52.822;6.860;2023-04-24T08:15:36;10.50;99.90
55173;DHT22;41061;52.822;6.860;2023-04-24T08:18:02;10.40;99.90
55173;DHT22;41061;52.822;6.860;2023-04-24T08:20:28;10.40;99.90
55173;DHT22;41061;52.822;6.860;2023-04-24T08:22:54;10.40;99.90
55173;DHT22;41061;52.822;6.860;2023-04-24T08:25:20;10.40;99.90
55173;DHT22;41061;52.822;6.860;2023-04-24T08:27:48;10.40;99.90
55173;DHT22;41061;52.822;6.860;2023-04-24T08:30:14;10.40;99.90
55173;DHT22;41061;52.822;6.860;2023-04-24T08:32:40;10.40;99.90
55173;DHT22;41061;52.822;6.860;2023-04-24T08:35:06;10.50;99.90
55173;DHT22;41061;52.822;6.860;2023-04-24T08:37:34;10.40;99.90
55173;DHT22;41061;52.822;6.860;2023-04-24T08:40:02;10.40;99.90
55173;DHT22;41061;52.822;6.860;2023-04-24T08:42:28;10.40;99.90
55173;DHT22;41061;52.822;6.860;2023-04-24T08:44:55;10.40;99.90
55173;DHT22;41061;52.822;6.860;2023-04-24T08:47:22;10.40;99.90
55173;DHT22;41061;52.822;6.860;2023-04-24T08:49:49;10.40;99.90
55173;DHT22;41061;52.822;6.860;2023-04-24T08:52:15;10.30;99.90
55173;DHT22;41061;52.822;6.860;2023-04-24T08:54:42;10.30;99.90
55173;DHT22;41061;52.822;6.860;2023-04-24T08:57:09;10.30;99.90
55173;DHT22;41061;52.822;6.860;2023-04-24T08:59:38;10.40;99.90
55173;DHT22;41061;52.822;6.860;2023-04-24T09:02:03;10.30;99.90
55173;DHT22;41061;52.822;6.860;2023-04-24T09:04:30;10.30;99.90
55173;DHT22;41061;52.822;6.860;2023-04-24T09:06:57;10.40;99.90
55173;DHT22;41061;52.822;6.860;2023-04-24T09:09:24;10.40;99.90
55173;DHT22;41061;52.822;6.860;2023-04-24T09:11:51;10.40;99.90
55173;DHT22;41061;52.822;6.860;2023-04-24T09:14:19;10.30;99.90
55173;DHT22;41061;52.822;6.860;2023-04-24T09:16:45;10.30;99.90
55173;DHT22;41061;52.822;6.860;2023-04-24T09:19:11;10.30;99.90
55173;DHT22;41061;52.822;6.860;2023-04-24T09:21:37;10.30;99.90
55173;DHT22;41061;52.822;6.860;2023-04-24T09:24:05;10.40;99.90
55173;DHT22;41061;52.822;6.860;2023-04-24T09:26:35;10.40;99.90
55173;DHT22;41061;52.822;6.860;2023-04-24T09:29:02;10.40;99.90
55173;DHT22;41061;52.822;6.860;2023-04-24T09:31:29;10.30;99.90
55173;DHT22;41061;52.822;6.860;2023-04-24T09:34:03;10.30;99.90
55173;DHT22;41061;52.822;6.860;2023-04-24T09:36:33;10.30;99.90
55173;DHT22;41061;52.822;6.860;2023-04-24T09:39:00;10.30;99.90
55173;DHT22;41061;52.822;6.860;2023-04-24T09:41:26;10.30;99.90
55173;DHT22;41061;52.822;6.860;2023-04-24T09:43:57;10.20;99.90
55173;DHT22;41061;52.822;6.860;2023-04-24T09:46:30;10.20;99.90
55173;DHT22;41061;52.822;6.860;2023-04-24T09:49:15;10.00;99.90
55173;DHT22;41061;52.822;6.860;2023-04-24T09:51:42;9.90;99.90
55173;DHT22;41061;52.822;6.860;2023-04-24T09:54:17;9.90;99.90
55173;DHT22;41061;52.822;6.860;2023-04-24T09:56:46;9.80;99.90
55173;DHT22;41061;52.822;6.860;2023-04-24T09:59:14;9.80;99.90
55173;DHT22;41061;52.822;6.860;2023-04-24T10:01:40;9.70;99.90
55173;DHT22;41061;52.822;6.860;2023-04-24T10:04:37;9.70;99.90
55173;DHT22;41061;52.822;6.860;2023-04-24T10:07:03;9.70;99.90
55173;DHT22;41061;52.822;6.860;2023-04-24T10:09:32;9.80;99.90
55173;DHT22;41061;52.822;6.860;2023-04-24T10:11:59;9.70;99.90
55173;DHT22;41061;52.822;6.860;2023-04-24T10:14:27;9.70;99.90
55173;DHT22;41061;52.822;6.860;2023-04-24T10:16:54;9.80;99.90
55173;DHT22;41061;52.822;6.860;2023-04-24T10:19:25;9.80;99.90
55173;DHT22;41061;52.822;6.860;2023-04-24T10:21:51;9.80;99.90
55173;DHT22;41061;52.822;6.860;2023-04-24T10:24:18;9.80;99.90
55173;DHT22;41061;52.822;6.860;2023-04-24T10:26:47;9.80;99.90
55173;DHT22;41061;52.822;6.860;2023-04-24T10:29:18;9.80;99.90
55173;DHT22;41061;52.822;6.860;2023-04-24T10:31:44;9.70;99.90
55173;DHT22;41061;52.822;6.860;2023-04-24T10:34:13;9.80;99.90
55173;DHT22;41061;52.822;6.860;2023-04-24T10:36:43;9.80;99.90
55173;DHT22;41061;52.822;6.860;2023-04-24T10:39:13;9.70;99.90
55173;DHT22;41061;52.822;6.860;2023-04-24T10:41:40;9.80;99.90
55173;DHT22;41061;52.822;6.860;2023-04-24T10:44:13;9.90;99.90
55173;DHT22;41061;52.822;6.860;2023-04-24T10:46:44;9.90;99.90
55173;DHT22;41061;52.822;6.860;2023-04-24T10:49:10;10.00;99.90
55173;DHT22;41061;52.822;6.860;2023-04-24T10:56:53;10.00;99.90
55173;DHT22;41061;52.822;6.860;2023-04-24T10:59:27;9.90;99.90
55173;DHT22;41061;52.822;6.860;2023-04-24T11:01:54;9.90;99.90
55173;DHT22;41061;52.822;6.860;2023-04-24T11:04:31;9.90;99.90
55173;DHT22;41061;52.822;6.860;2023-04-24T11:06:57;9.80;99.90
55173;DHT22;41061;52.822;6.860;2023-04-24T11:09:26;9.80;99.90
55173;DHT22;41061;52.822;6.860;2023-04-24T11:12:09;9.90;99.90
55173;DHT22;41061;52.822;6.860;2023-04-24T11:14:59;9.90;99.90
55173;DHT22;41061;52.822;6.860;2023-04-24T11:17:36;9.90;99.90
55173;DHT22;41061;52.822;6.860;2023-04-24T11:20:16;9.80;99.90
55173;DHT22;41061;52.822;6.860;2023-04-24T11:22:42;9.80;99.90
55173;DHT22;41061;52.822;6.860;2023-04-24T11:25:09;9.80;99.90
55173;DHT22;41061;52.822;6.860;2023-04-24T11:27:41;9.80;99.90
55173;DHT22;41061;52.822;6.860;2023-04-24T11:30:08;9.90;99.90
55173;DHT22;41061;52.822;6.860;2023-04-24T11:32:38;9.90;99.90
55173;DHT22;41061;52.822;6.860;2023-04-24T11:35:17;10.00;99.90
55173;DHT22;41061;52.822;6.860;2023-04-24T11:37:47;10.10;99.90
55173;DHT22;41061;52.822;6.860;2023-04-24T11:40:17;10.20;99.90
55173;DHT22;41061;52.822;6.860;2023-04-24T11:42:49;10.20;99.90
55173;DHT22;41061;52.822;6.860;2023-04-24T11:45:26;10.20;99.90
55173;DHT22;41061;52.822;6.860;2023-04-24T11:47:52;10.10;99.90
55173;DHT22;41061;52.822;6.860;2023-04-24T11:50:21;10.00;99.90
55173;DHT22;41061;52.822;6.860;2023-04-24T11:52:48;9.90;99.90
55173;DHT22;41061;52.822;6.860;2023-04-24T11:57:42;9.80;99.90
55173;DHT22;41061;52.822;6.860;2023-04-24T12:00:21;9.80;99.90
55173;DHT22;41061;52.822;6.860;2023-04-24T12:02:48;9.80;99.90
55173;DHT22;41061;52.822;6.860;2023-04-24T12:05:22;9.80;99.90
55173;DHT22;41061;52.822;6.860;2023-04-24T12:07:48;9.80;99.90
55173;DHT22;41061;52.822;6.860;2023-04-24T12:10:14;9.90;99.90
55173;DHT22;41061;52.822;6.860;2023-04-24T12:12:45;10.00;99.90
55173;DHT22;41061;52.822;6.860;2023-04-24T12:15:12;10.10;99.90
55173;DHT22;41061;52.822;6.860;2023-04-24T12:17:41;10.10;99.90
55173;DHT22;41061;52.822;6.860;2023-04-24T12:20:08;10.10;99.90
55173;DHT22;41061;52.822;6.860;2023-04-24T12:22:54;10.10;99.90
55173;DHT22;41061;52.822;6.860;2023-04-24T12:25:22;10.00;99.90
55173;DHT22;41061;52.822;6.860;2023-04-24T12:30:33;10.00;99.90
55173;DHT22;41061;52.822;6.860;2023-04-24T12:33:00;9.90;99.90
55173;DHT22;41061;52.822;6.860;2023-04-24T12:35:31;9.90;99.90
55173;DHT22;41061;52.822;6.860;2023-04-24T12:38:09;9.90;99.90
55173;DHT22;41061;52.822;6.860;2023-04-24T12:40:35;9.90;99.90
55173;DHT22;41061;52.822;6.860;2023-04-24T12:43:01;9.90;99.90
55173;DHT22;41061;52.822;6.860;2023-04-24T12:45:27;9.90;99.90
55173;DHT22;41061;52.822;6.860;2023-04-24T12:47:53;10.00;99.90
55173;DHT22;41061;52.822;6.860;2023-04-24T12:50:19;10.00;99.90
55173;DHT22;41061;52.822;6.860;2023-04-24T12:52:45;10.00;99.90
55173;DHT22;41061;52.822;6.860;2023-04-24T12:55:11;10.00;99.90
55173;DHT22;41061;52.822;6.860;2023-04-24T12:57:39;10.00;99.90
55173;DHT22;41061;52.822;6.860;2023-04-24T13:00:06;10.10;99.90
55173;DHT22;41061;52.822;6.860;2023-04-24T13:02:33;10.10;99.90
55173;DHT22;41061;52.822;6.860;2023-04-24T13:04:59;10.10;99.90
55173;DHT22;41061;52.822;6.860;2023-04-24T13:07:26;10.10;99.90
55173;DHT22;41061;52.822;6.860;2023-04-24T13:09:52;10.10;99.90
55173;DHT22;41061;52.822;6.860;2023-04-24T13:12:18;10.30;99.90
55173;DHT22;41061;52.822;6.860;2023-04-24T13:14:44;10.40;99.90
55173;DHT22;41061;52.822;6.860;2023-04-24T13:17:11;10.50;99.90
55173;DHT22;41061;52.822;6.860;2023-04-24T13:19:43;10.50;99.90
55173;DHT22;41061;52.822;6.860;2023-04-24T13:22:10;10.40;99.90
55173;DHT22;41061;52.822;6.860;2023-04-24T13:24:36;10.40;99.90
55173;DHT22;41061;52.822;6.860;2023-04-24T13:27:03;10.30;99.90
55173;DHT22;41061;52.822;6.860;2023-04-24T13:29:29;10.30;99.90
55173;DHT22;41061;52.822;6.860;2023-04-24T13:31:55;10.20;99.90
55173;DHT22;41061;52.822;6.860;2023-04-24T13:34:25;10.00;99.90
55173;DHT22;41061;52.822;6.860;2023-04-24T13:36:53;10.00;99.90
55173;DHT22;41061;52.822;6.860;2023-04-24T13:39:19;10.00;99.90
55173;DHT22;41061;52.822;6.860;2023-04-24T13:41:45;9.90;99.90
55173;DHT22;41061;52.822;6.860;2023-04-24T13:44:14;9.90;99.90
55173;DHT22;41061;52.822;6.860;2023-04-24T13:46:40;9.90;99.90
55173;DHT22;41061;52.822;6.860;2023-04-24T13:49:06;9.90;99.90
55173;DHT22;41061;52.822;6.860;2023-04-24T13:51:32;9.90;99.90
55173;DHT22;41061;52.822;6.860;2023-04-24T13:53:58;10.00;99.90
55173;DHT22;41061;52.822;6.860;2023-04-24T13:56:26;10.00;99.90
55173;DHT22;41061;52.822;6.860;2023-04-24T13:58:51;10.00;99.90
55173;DHT22;41061;52.822;6.860;2023-04-24T14:01:19;10.00;99.90
55173;DHT22;41061;52.822;6.860;2023-04-24T14:03:45;10.00;99.90
55173;DHT22;41061;52.822;6.860;2023-04-24T14:06:10;9.90;99.90
55173;DHT22;41061;52.822;6.860;2023-04-24T14:08:36;9.90;99.90
55173;DHT22;41061;52.822;6.860;2023-04-24T14:11:02;9.90;99.90
55173;DHT22;41061;52.822;6.860;2023-04-24T14:13:28;9.90;99.90
55173;DHT22;41061;52.822;6.860;2023-04-24T14:15:54;9.80;99.90
55173;DHT22;41061;52.822;6.860;2023-04-24T14:18:20;9.80;99.90
55173;DHT22;41061;52.822;6.860;2023-04-24T14:20:46;9.70;99.90
55173;DHT22;41061;52.822;6.860;2023-04-24T14:23:11;9.70;99.90
55173;DHT22;41061;52.822;6.860;2023-04-24T14:25:37;9.60;99.90
55173;DHT22;41061;52.822;6.860;2023-04-24T14:28:03;9.50;99.90
55173;DHT22;41061;52.822;6.860;2023-04-24T14:30:28;9.50;99.90
55173;DHT22;41061;52.822;6.860;2023-04-24T14:32:54;9.40;99.90
55173;DHT22;41061;52.822;6.860;2023-04-24T14:35:20;9.40;99.90
55173;DHT22;41061;52.822;6.860;2023-04-24T14:37:45;9.40;99.90
55173;DHT22;41061;52.822;6.860;2023-04-24T14:40:11;9.50;99.90
55173;DHT22;41061;52.822;6.860;2023-04-24T14:42:37;9.50;99.90
55173;DHT22;41061;52.822;6.860;2023-04-24T14:45:03;9.50;99.90
55173;DHT22;41061;52.822;6.860;2023-04-24T14:47:29;9.60;99.90
55173;DHT22;41061;52.822;6.860;2023-04-24T14:49:55;9.60;99.90
55173;DHT22;41061;52.822;6.860;2023-04-24T14:52:21;9.60;99.90
55173;DHT22;41061;52.822;6.860;2023-04-24T14:54:46;9.70;99.90
55173;DHT22;41061;52.822;6.860;2023-04-24T14:57:12;9.70;99.90
55173;DHT22;41061;52.822;6.860;2023-04-24T14:59:38;9.70;99.90
55173;DHT22;41061;52.822;6.860;2023-04-24T15:02:04;9.70;99.90
55173;DHT22;41061;52.822;6.860;2023-04-24T15:04:30;9.70;99.90
55173;DHT22;41061;52.822;6.860;2023-04-24T15:06:56;9.70;99.90
55173;DHT22;41061;52.822;6.860;2023-04-24T15:09:23;9.70;99.90
55173;DHT22;41061;52.822;6.860;2023-04-24T15:11:49;9.70;99.90
55173;DHT22;41061;52.822;6.860;2023-04-24T15:14:16;9.70;99.90
55173;DHT22;41061;52.822;6.860;2023-04-24T15:16:42;9.70;99.90
55173;DHT22;41061;52.822;6.860;2023-04-24T15:19:07;9.70;99.90
55173;DHT22;41061;52.822;6.860;2023-04-24T15:21:33;9.70;99.90
55173;DHT22;41061;52.822;6.860;2023-04-24T15:23:59;9.70;99.90
55173;DHT22;41061;52.822;6.860;2023-04-24T15:26:25;9.80;99.90
55173;DHT22;41061;52.822;6.860;2023-04-24T15:28:51;9.90;99.90
55173;DHT22;41061;52.822;6.860;2023-04-24T15:31:18;10.00;99.90
55173;DHT22;41061;52.822;6.860;2023-04-24T15:33:44;10.10;99.90
55173;DHT22;41061;52.822;6.860;2023-04-24T15:36:10;10.10;99.90
55173;DHT22;41061;52.822;6.860;2023-04-24T15:38:37;10.10;99.90
55173;DHT22;41061;52.822;6.860;2023-04-24T15:41:03;10.10;99.90
55173;DHT22;41061;52.822;6.860;2023-04-24T15:43:28;10.10;99.90
55173;DHT22;41061;52.822;6.860;2023-04-24T15:45:57;10.20;99.90
55173;DHT22;41061;52.822;6.860;2023-04-24T15:48:23;10.30;99.90